sensor_id;sensor_type;location;lat;lon;timestamp;P1;durP1;ratioP1;P2;durP2;ratioP2
51718;SDS011;37795;53.236;5.704;2024-01-06T00:01:29;1.50;;;1.00;;
51718;SDS011;37795;53.236;5.704;2024-01-06T00:03:55;1.20;;;1.00;;
51718;SDS011;37795;53.236;5.704;2024-01-06T00:06:20;2.10;;;0.97;;
51718;SDS011;37795;53.236;5.704;2024-01-06T00:08:46;1.53;;;1.00;;
51718;SDS011;37795;53.236;5.704;2024-01-06T00:11:18;1.97;;;1.03;;
51718;SDS011;37795;53.236;5.704;2024-01-06T00:13:45;1.58;;;0.90;;
51718;SDS011;37795;53.236;5.704;2024-01-06T00:16:11;3.03;;;1.20;;
51718;SDS011;37795;53.236;5.704;2024-01-06T00:18:36;1.58;;;1.10;;
51718;SDS011;37795;53.236;5.704;2024-01-06T00:21:02;1.47;;;0.93;;
51718;SDS011;37795;53.236;5.704;2024-01-06T00:23:28;2.20;;;1.00;;
51718;SDS011;37795;53.236;5.704;2024-01-06T00:25:54;1.50;;;0.93;;
51718;SDS011;37795;53.236;5.704;2024-01-06T00:28:19;1.73;;;1.00;;
51718;SDS011;37795;53.236;5.704;2024-01-06T00:30:45;1.30;;;1.00;;
51718;SDS011;37795;53.236;5.704;2024-01-06T00:33:11;2.33;;;1.10;;
51718;SDS011;37795;53.236;5.704;2024-01-06T00:35:37;1.55;;;1.10;;
51718;SDS011;37795;53.236;5.704;2024-01-06T00:38:03;1.73;;;0.80;;
51718;SDS011;37795;53.236;5.704;2024-01-06T00:40:29;1.70;;;1.10;;
51718;SDS011;37795;53.236;5.704;2024-01-06T00:42:54;2.80;;;1.00;;
51718;SDS011;37795;53.236;5.704;2024-01-06T00:45:20;1.83;;;1.00;;
51718;SDS011;37795;53.236;5.704;2024-01-06T00:47:47;1.60;;;0.90;;
51718;SDS011;37795;53.236;5.704;2024-01-06T00:50:13;2.95;;;1.10;;
51718;SDS011;37795;53.236;5.704;2024-01-06T00:52:38;1.42;;;1.00;;
51718;SDS011;37795;53.236;5.704;2024-01-06T00:55:04;2.10;;;0.90;;
51718;SDS011;37795;53.236;5.704;2024-01-06T00:57:30;1.67;;;0.90;;
51718;SDS011;37795;53.236;5.704;2024-01-06T00:59:55;1.00;;;0.90;;
51718;SDS011;37795;53.236;5.704;2024-01-06T01:02:21;1.50;;;1.00;;
51718;SDS011;37795;53.236;5.704;2024-01-06T01:04:47;1.70;;;1.00;;
51718;SDS011;37795;53.236;5.704;2024-01-06T01:07:12;2.60;;;1.20;;
51718;SDS011;37795;53.236;5.704;2024-01-06T01:09:38;2.45;;;1.08;;
51718;SDS011;37795;53.236;5.704;2024-01-06T01:12:04;1.37;;;0.90;;
51718;SDS011;37795;53.236;5.704;2024-01-06T01:14:30;1.57;;;1.00;;
51718;SDS011;37795;53.236;5.704;2024-01-06T01:16:55;1.17;;;0.83;;
51718;SDS011;37795;53.236;5.704;2024-01-06T01:19:21;1.95;;;1.10;;
51718;SDS011;37795;53.236;5.704;2024-01-06T01:21:47;1.30;;;0.90;;
51718;SDS011;37795;53.236;5.704;2024-01-06T01:24:12;1.67;;;1.00;;
51718;SDS011;37795;53.236;5.704;2024-01-06T01:26:38;1.73;;;1.10;;
51718;SDS011;37795;53.236;5.704;2024-01-06T01:29:04;1.58;;;0.90;;
51718;SDS011;37795;53.236;5.704;2024-01-06T01:31:29;1.60;;;0.95;;
51718;SDS011;37795;53.236;5.704;2024-01-06T01:33:55;1.97;;;1.20;;
51718;SDS011;37795;53.236;5.704;2024-01-06T01:36:21;1.50;;;0.90;;
51718;SDS011;37795;53.236;5.704;2024-01-06T01:38:46;1.30;;;0.93;;
51718;SDS011;37795;53.236;5.704;2024-01-06T01:41:12;1.75;;;1.10;;
51718;SDS011;37795;53.236;5.704;2024-01-06T01:43:38;1.53;;;1.03;;
51718;SDS011;37795;53.236;5.704;2024-01-06T01:46:03;2.03;;;1.00;;
51718;SDS011;37795;53.236;5.704;2024-01-06T01:48:29;2.05;;;0.88;;
51718;SDS011;37795;53.236;5.704;2024-01-06T01:50:58;1.52;;;0.95;;
51718;SDS011;37795;53.236;5.704;2024-01-06T01:53:24;1.77;;;0.90;;
51718;SDS011;37795;53.236;5.704;2024-01-06T01:55:51;1.50;;;0.90;;
51718;SDS011;37795;53.236;5.704;2024-01-06T01:58:18;2.20;;;1.30;;
51718;SDS011;37795;53.236;5.704;2024-01-06T02:00:44;1.88;;;0.90;;
51718;SDS011;37795;53.236;5.704;2024-01-06T02:03:10;1.50;;;0.98;;
51718;SDS011;37795;53.236;5.704;2024-01-06T02:05:38;1.50;;;1.00;;
51718;SDS011;37795;53.236;5.704;2024-01-06T02:08:04;1.23;;;0.80;;
51718;SDS011;37795;53.236;5.704;2024-01-06T02:10:31;1.25;;;0.85;;
51718;SDS011;37795;53.236;5.704;2024-01-06T02:12:56;1.35;;;0.90;;
51718;SDS011;37795;53.236;5.704;2024-01-06T02:15:22;1.10;;;0.88;;
51718;SDS011;37795;53.236;5.704;2024-01-06T02:17:48;1.30;;;1.00;;
51718;SDS011;37795;53.236;5.704;2024-01-06T02:20:14;1.33;;;0.90;;
51718;SDS011;37795;53.236;5.704;2024-01-06T02:22:41;1.42;;;1.00;;
51718;SDS011;37795;53.236;5.704;2024-01-06T02:25:07;1.13;;;0.80;;
51718;SDS011;37795;53.236;5.704;2024-01-06T02:27:38;1.27;;;0.90;;
51718;SDS011;37795;53.236;5.704;2024-01-06T02:30:05;1.05;;;0.82;;
51718;SDS011;37795;53.236;5.704;2024-01-06T02:32:32;1.42;;;0.80;;
51718;SDS011;37795;53.236;5.704;2024-01-06T02:34:57;1.70;;;0.90;;
51718;SDS011;37795;53.236;5.704;2024-01-06T02:37:23;1.60;;;0.87;;
51718;SDS011;37795;53.236;5.704;2024-01-06T02:39:49;1.47;;;1.00;;
51718;SDS011;37795;53.236;5.704;2024-01-06T02:42:14;1.60;;;0.80;;
51718;SDS011;37795;53.236;5.704;2024-01-06T02:44:40;1.10;;;0.90;;
51718;SDS011;37795;53.236;5.704;2024-01-06T02:47:06;0.90;;;0.80;;
51718;SDS011;37795;53.236;5.704;2024-01-06T02:49:31;1.30;;;0.93;;
51718;SDS011;37795;53.236;5.704;2024-01-06T02:51:57;0.88;;;0.70;;
51718;SDS011;37795;53.236;5.704;2024-01-06T02:54:22;1.67;;;0.90;;
51718;SDS011;37795;53.236;5.704;2024-01-06T02:56:48;1.47;;;0.97;;
51718;SDS011;37795;53.236;5.704;2024-01-06T02:59:14;1.10;;;0.82;;
51718;SDS011;37795;53.236;5.704;2024-01-06T03:01:39;1.35;;;0.80;;
51718;SDS011;37795;53.236;5.704;2024-01-06T03:04:05;1.07;;;0.87;;
51718;SDS011;37795;53.236;5.704;2024-01-06T03:06:31;3.00;;;0.90;;
51718;SDS011;37795;53.236;5.704;2024-01-06T03:08:56;1.67;;;0.90;;
51718;SDS011;37795;53.236;5.704;2024-01-06T03:11:22;1.90;;;0.90;;
51718;SDS011;37795;53.236;5.704;2024-01-06T03:13:48;1.50;;;0.90;;
51718;SDS011;37795;53.236;5.704;2024-01-06T03:16:13;1.30;;;1.00;;
51718;SDS011;37795;53.236;5.704;2024-01-06T03:18:39;1.30;;;0.70;;
51718;SDS011;37795;53.236;5.704;2024-01-06T03:21:05;0.93;;;0.70;;
51718;SDS011;37795;53.236;5.704;2024-01-06T03:23:30;1.50;;;0.80;;
51718;SDS011;37795;53.236;5.704;2024-01-06T03:25:56;1.23;;;0.85;;
51718;SDS011;37795;53.236;5.704;2024-01-06T03:28:22;1.13;;;0.90;;
51718;SDS011;37795;53.236;5.704;2024-01-06T03:30:47;1.10;;;1.00;;
51718;SDS011;37795;53.236;5.704;2024-01-06T03:33:13;1.23;;;0.90;;
51718;SDS011;37795;53.236;5.704;2024-01-06T03:35:39;1.60;;;0.80;;
51718;SDS011;37795;53.236;5.704;2024-01-06T03:38:04;1.42;;;0.80;;
51718;SDS011;37795;53.236;5.704;2024-01-06T03:40:30;1.30;;;0.87;;
51718;SDS011;37795;53.236;5.704;2024-01-06T03:42:56;1.17;;;0.90;;
51718;SDS011;37795;53.236;5.704;2024-01-06T03:45:21;1.70;;;0.90;;
51718;SDS011;37795;53.236;5.704;2024-01-06T03:47:47;1.20;;;1.00;;
51718;SDS011;37795;53.236;5.704;2024-01-06T03:50:13;1.17;;;0.83;;
51718;SDS011;37795;53.236;5.704;2024-01-06T03:52:38;0.80;;;0.77;;
51718;SDS011;37795;53.236;5.704;2024-01-06T03:55:05;1.08;;;0.68;;
51718;SDS011;37795;53.236;5.704;2024-01-06T03:57:31;0.95;;;0.77;;
51718;SDS011;37795;53.236;5.704;2024-01-06T03:59:57;1.17;;;0.90;;
51718;SDS011;37795;53.236;5.704;2024-01-06T04:02:22;1.40;;;1.00;;
51718;SDS011;37795;53.236;5.704;2024-01-06T04:04:49;1.23;;;0.70;;
51718;SDS011;37795;53.236;5.704;2024-01-06T04:07:14;1.25;;;0.80;;
51718;SDS011;37795;53.236;5.704;2024-01-06T04:09:43;1.07;;;0.70;;
51718;SDS011;37795;53.236;5.704;2024-01-06T04:12:08;1.27;;;0.88;;
51718;SDS011;37795;53.236;5.704;2024-01-06T04:14:34;0.95;;;0.70;;
51718;SDS011;37795;53.236;5.704;2024-01-06T04:17:00;0.93;;;0.70;;
51718;SDS011;37795;53.236;5.704;2024-01-06T04:19:25;1.20;;;0.90;;
51718;SDS011;37795;53.236;5.704;2024-01-06T04:21:51;0.80;;;0.70;;
51718;SDS011;37795;53.236;5.704;2024-01-06T04:24:17;1.00;;;0.80;;
51718;SDS011;37795;53.236;5.704;2024-01-06T04:26:43;0.80;;;0.80;;
51718;SDS011;37795;53.236;5.704;2024-01-06T04:29:10;0.90;;;0.90;;
51718;SDS011;37795;53.236;5.704;2024-01-06T04:31:37;1.30;;;0.90;;
51718;SDS011;37795;53.236;5.704;2024-01-06T04:34:02;1.00;;;0.80;;
51718;SDS011;37795;53.236;5.704;2024-01-06T04:36:28;1.10;;;0.70;;
51718;SDS011;37795;53.236;5.704;2024-01-06T04:38:54;1.08;;;0.70;;
51718;SDS011;37795;53.236;5.704;2024-01-06T04:41:20;1.35;;;0.90;;
51718;SDS011;37795;53.236;5.704;2024-01-06T04:43:46;1.42;;;0.90;;
51718;SDS011;37795;53.236;5.704;2024-01-06T04:46:12;1.67;;;0.80;;
51718;SDS011;37795;53.236;5.704;2024-01-06T04:48:40;1.00;;;0.87;;
51718;SDS011;37795;53.236;5.704;2024-01-06T04:51:06;1.00;;;0.73;;
51718;SDS011;37795;53.236;5.704;2024-01-06T04:53:35;1.00;;;0.80;;
51718;SDS011;37795;53.236;5.704;2024-01-06T04:56:01;0.82;;;0.65;;
51718;SDS011;37795;53.236;5.704;2024-01-06T04:58:27;0.98;;;0.70;;
51718;SDS011;37795;53.236;5.704;2024-01-06T05:00:52;0.97;;;0.70;;
51718;SDS011;37795;53.236;5.704;2024-01-06T05:03:18;1.00;;;0.90;;
51718;SDS011;37795;53.236;5.704;2024-01-06T05:05:44;0.93;;;0.70;;
51718;SDS011;37795;53.236;5.704;2024-01-06T05:08:10;1.23;;;0.82;;
51718;SDS011;37795;53.236;5.704;2024-01-06T05:10:35;0.93;;;0.70;;
51718;SDS011;37795;53.236;5.704;2024-01-06T05:13:01;1.23;;;0.83;;
51718;SDS011;37795;53.236;5.704;2024-01-06T05:15:27;1.13;;;0.80;;
51718;SDS011;37795;53.236;5.704;2024-01-06T05:17:52;1.40;;;0.90;;
51718;SDS011;37795;53.236;5.704;2024-01-06T05:20:18;2.20;;;0.80;;
51718;SDS011;37795;53.236;5.704;2024-01-06T05:22:44;1.07;;;0.97;;
51718;SDS011;37795;53.236;5.704;2024-01-06T05:25:09;1.00;;;0.70;;
51718;SDS011;37795;53.236;5.704;2024-01-06T05:27:35;1.65;;;0.90;;
51718;SDS011;37795;53.236;5.704;2024-01-06T05:30:01;0.90;;;0.80;;
51718;SDS011;37795;53.236;5.704;2024-01-06T05:32:27;1.00;;;0.90;;
51718;SDS011;37795;53.236;5.704;2024-01-06T05:34:53;1.40;;;0.80;;
51718;SDS011;37795;53.236;5.704;2024-01-06T05:37:18;0.75;;;0.70;;
51718;SDS011;37795;53.236;5.704;2024-01-06T05:39:44;1.00;;;0.80;;
51718;SDS011;37795;53.236;5.704;2024-01-06T05:42:10;1.00;;;0.80;;
51718;SDS011;37795;53.236;5.704;2024-01-06T05:44:40;1.70;;;0.90;;
51718;SDS011;37795;53.236;5.704;2024-01-06T05:47:06;1.10;;;0.80;;
51718;SDS011;37795;53.236;5.704;2024-01-06T05:49:33;0.80;;;0.77;;
51718;SDS011;37795;53.236;5.704;2024-01-06T05:51:59;0.90;;;0.80;;
51718;SDS011;37795;53.236;5.704;2024-01-06T05:54:24;1.50;;;0.70;;
51718;SDS011;37795;53.236;5.704;2024-01-06T05:56:50;1.00;;;0.83;;
51718;SDS011;37795;53.236;5.704;2024-01-06T05:59:16;1.30;;;1.17;;
51718;SDS011;37795;53.236;5.704;2024-01-06T06:01:42;0.90;;;0.70;;
51718;SDS011;37795;53.236;5.704;2024-01-06T06:04:10;1.80;;;1.15;;
51718;SDS011;37795;53.236;5.704;2024-01-06T06:06:36;1.00;;;0.70;;
51718;SDS011;37795;53.236;5.704;2024-01-06T06:09:02;0.80;;;0.70;;
51718;SDS011;37795;53.236;5.704;2024-01-06T06:11:32;1.40;;;0.80;;
51718;SDS011;37795;53.236;5.704;2024-01-06T06:14:01;0.95;;;0.70;;
51718;SDS011;37795;53.236;5.704;2024-01-06T06:16:28;0.77;;;0.60;;
51718;SDS011;37795;53.236;5.704;2024-01-06T06:18:54;0.90;;;0.70;;
51718;SDS011;37795;53.236;5.704;2024-01-06T06:21:20;0.80;;;0.63;;
51718;SDS011;37795;53.236;5.704;2024-01-06T06:23:46;0.80;;;0.68;;
51718;SDS011;37795;53.236;5.704;2024-01-06T06:26:11;0.98;;;0.73;;
51718;SDS011;37795;53.236;5.704;2024-01-06T06:28:38;1.30;;;0.70;;
51718;SDS011;37795;53.236;5.704;2024-01-06T06:31:03;1.58;;;0.90;;
51718;SDS011;37795;53.236;5.704;2024-01-06T06:33:29;1.00;;;0.70;;
51718;SDS011;37795;53.236;5.704;2024-01-06T06:35:55;0.90;;;0.80;;
51718;SDS011;37795;53.236;5.704;2024-01-06T06:38:21;1.43;;;0.80;;
51718;SDS011;37795;53.236;5.704;2024-01-06T06:40:46;0.80;;;0.80;;
51718;SDS011;37795;53.236;5.704;2024-01-06T06:43:13;1.10;;;0.82;;
51718;SDS011;37795;53.236;5.704;2024-01-06T06:52:14;1.30;;;0.80;;
51718;SDS011;37795;53.236;5.704;2024-01-06T06:54:40;1.23;;;0.90;;
51718;SDS011;37795;53.236;5.704;2024-01-06T06:57:06;1.20;;;0.90;;
51718;SDS011;37795;53.236;5.704;2024-01-06T06:59:31;1.20;;;0.87;;
51718;SDS011;37795;53.236;5.704;2024-01-06T07:01:57;1.07;;;0.70;;
51718;SDS011;37795;53.236;5.704;2024-01-06T07:04:23;1.00;;;0.90;;
51718;SDS011;37795;53.236;5.704;2024-01-06T07:06:51;1.02;;;0.70;;
51718;SDS011;37795;53.236;5.704;2024-01-06T07:09:16;1.10;;;0.80;;
51718;SDS011;37795;53.236;5.704;2024-01-06T07:11:42;1.00;;;0.80;;
51718;SDS011;37795;53.236;5.704;2024-01-06T07:14:07;1.15;;;0.70;;
51718;SDS011;37795;53.236;5.704;2024-01-06T07:16:33;1.00;;;0.80;;
51718;SDS011;37795;53.236;5.704;2024-01-06T07:18:59;0.90;;;0.80;;
51718;SDS011;37795;53.236;5.704;2024-01-06T07:21:24;0.93;;;0.70;;
51718;SDS011;37795;53.236;5.704;2024-01-06T07:23:50;0.80;;;0.70;;
51718;SDS011;37795;53.236;5.704;2024-01-06T07:26:16;0.87;;;0.70;;
51718;SDS011;37795;53.236;5.704;2024-01-06T07:28:42;1.05;;;0.73;;
51718;SDS011;37795;53.236;5.704;2024-01-06T07:31:08;1.07;;;0.70;;
51718;SDS011;37795;53.236;5.704;2024-01-06T07:33:34;0.90;;;0.70;;
51718;SDS011;37795;53.236;5.704;2024-01-06T07:35:59;0.88;;;0.70;;
51718;SDS011;37795;53.236;5.704;2024-01-06T07:38:25;1.10;;;0.80;;
51718;SDS011;37795;53.236;5.704;2024-01-06T07:40:51;1.10;;;0.60;;
51718;SDS011;37795;53.236;5.704;2024-01-06T07:43:17;1.13;;;0.70;;
51718;SDS011;37795;53.236;5.704;2024-01-06T07:45:42;1.00;;;0.60;;
51718;SDS011;37795;53.236;5.704;2024-01-06T07:48:08;0.75;;;0.52;;
51718;SDS011;37795;53.236;5.704;2024-01-06T07:50:34;0.95;;;0.80;;
51718;SDS011;37795;53.236;5.704;2024-01-06T07:52:59;1.10;;;0.60;;
51718;SDS011;37795;53.236;5.704;2024-01-06T07:55:25;0.90;;;0.60;;
51718;SDS011;37795;53.236;5.704;2024-01-06T07:57:53;0.70;;;0.50;;
51718;SDS011;37795;53.236;5.704;2024-01-06T08:00:19;0.87;;;0.60;;
51718;SDS011;37795;53.236;5.704;2024-01-06T08:02:45;1.23;;;0.70;;
51718;SDS011;37795;53.236;5.704;2024-01-06T08:05:11;1.00;;;0.70;;
51718;SDS011;37795;53.236;5.704;2024-01-06T08:07:36;1.00;;;0.68;;
51718;SDS011;37795;53.236;5.704;2024-01-06T08:10:02;0.93;;;0.75;;
51718;SDS011;37795;53.236;5.704;2024-01-06T08:12:30;0.70;;;0.52;;
51718;SDS011;37795;53.236;5.704;2024-01-06T08:14:55;0.90;;;0.60;;
51718;SDS011;37795;53.236;5.704;2024-01-06T08:17:21;1.10;;;0.50;;
51718;SDS011;37795;53.236;5.704;2024-01-06T08:19:47;1.00;;;0.60;;
51718;SDS011;37795;53.236;5.704;2024-01-06T08:22:13;1.15;;;0.50;;
51718;SDS011;37795;53.236;5.704;2024-01-06T08:24:38;1.13;;;0.70;;
51718;SDS011;37795;53.236;5.704;2024-01-06T08:27:04;0.80;;;0.60;;
51718;SDS011;37795;53.236;5.704;2024-01-06T08:29:30;0.90;;;0.77;;
51718;SDS011;37795;53.236;5.704;2024-01-06T08:31:56;0.70;;;0.63;;
51718;SDS011;37795;53.236;5.704;2024-01-06T08:34:22;0.93;;;0.73;;
51718;SDS011;37795;53.236;5.704;2024-01-06T08:36:48;0.60;;;0.50;;
51718;SDS011;37795;53.236;5.704;2024-01-06T08:39:13;1.07;;;0.83;;
51718;SDS011;37795;53.236;5.704;2024-01-06T08:41:39;0.70;;;0.60;;
51718;SDS011;37795;53.236;5.704;2024-01-06T08:44:05;1.15;;;0.63;;
51718;SDS011;37795;53.236;5.704;2024-01-06T08:46:30;0.77;;;0.60;;
51718;SDS011;37795;53.236;5.704;2024-01-06T08:48:56;0.90;;;0.50;;
51718;SDS011;37795;53.236;5.704;2024-01-06T08:51:22;1.10;;;0.60;;
51718;SDS011;37795;53.236;5.704;2024-01-06T08:53:49;1.05;;;0.77;;
51718;SDS011;37795;53.236;5.704;2024-01-06T08:56:14;0.70;;;0.60;;
51718;SDS011;37795;53.236;5.704;2024-01-06T08:58:43;1.00;;;0.70;;
51718;SDS011;37795;53.236;5.704;2024-01-06T09:01:09;0.70;;;0.60;;
51718;SDS011;37795;53.236;5.704;2024-01-06T09:03:35;1.05;;;0.68;;
51718;SDS011;37795;53.236;5.704;2024-01-06T09:06:00;0.90;;;0.70;;
51718;SDS011;37795;53.236;5.704;2024-01-06T09:08:26;0.85;;;0.60;;
51718;SDS011;37795;53.236;5.704;2024-01-06T09:10:52;0.90;;;0.60;;
51718;SDS011;37795;53.236;5.704;2024-01-06T09:13:22;1.00;;;0.80;;
51718;SDS011;37795;53.236;5.704;2024-01-06T09:15:48;0.82;;;0.80;;
51718;SDS011;37795;53.236;5.704;2024-01-06T09:18:14;1.58;;;1.00;;
51718;SDS011;37795;53.236;5.704;2024-01-06T09:20:39;1.00;;;0.70;;
51718;SDS011;37795;53.236;5.704;2024-01-06T09:23:05;0.90;;;0.80;;
51718;SDS011;37795;53.236;5.704;2024-01-06T09:30:44;0.90;;;0.60;;
51718;SDS011;37795;53.236;5.704;2024-01-06T09:37:00;1.10;;;0.70;;
51718;SDS011;37795;53.236;5.704;2024-01-06T09:39:26;0.90;;;0.60;;
51718;SDS011;37795;53.236;5.704;2024-01-06T09:41:52;0.97;;;0.70;;
51718;SDS011;37795;53.236;5.704;2024-01-06T09:44:17;0.80;;;0.70;;
51718;SDS011;37795;53.236;5.704;2024-01-06T09:46:43;1.40;;;0.63;;
51718;SDS011;37795;53.236;5.704;2024-01-06T09:49:10;0.93;;;0.63;;
51718;SDS011;37795;53.236;5.704;2024-01-06T09:51:36;1.00;;;0.70;;
51718;SDS011;37795;53.236;5.704;2024-01-06T09:54:04;1.25;;;0.60;;
51718;SDS011;37795;53.236;5.704;2024-01-06T09:56:33;1.00;;;0.90;;
51718;SDS011;37795;53.236;5.704;2024-01-06T09:58:59;0.90;;;0.60;;
51718;SDS011;37795;53.236;5.704;2024-01-06T10:01:27;1.08;;;0.70;;
51718;SDS011;37795;53.236;5.704;2024-01-06T10:03:52;1.08;;;0.70;;
51718;SDS011;37795;53.236;5.704;2024-01-06T10:06:18;1.17;;;0.93;;
51718;SDS011;37795;53.236;5.704;2024-01-06T10:08:49;2.23;;;0.90;;
51718;SDS011;37795;53.236;5.704;2024-01-06T10:11:16;2.47;;;0.90;;
51718;SDS011;37795;53.236;5.704;2024-01-06T10:13:43;2.50;;;0.80;;
51718;SDS011;37795;53.236;5.704;2024-01-06T10:16:09;2.00;;;0.80;;
51718;SDS011;37795;53.236;5.704;2024-01-06T10:18:34;1.17;;;0.63;;
51718;SDS011;37795;53.236;5.704;2024-01-06T10:21:04;2.90;;;0.80;;
51718;SDS011;37795;53.236;5.704;2024-01-06T10:23:31;1.23;;;0.80;;
51718;SDS011;37795;53.236;5.704;2024-01-06T10:25:58;1.50;;;0.82;;
51718;SDS011;37795;53.236;5.704;2024-01-06T10:28:24;1.60;;;0.80;;
51718;SDS011;37795;53.236;5.704;2024-01-06T10:30:53;1.67;;;0.80;;
51718;SDS011;37795;53.236;5.704;2024-01-06T10:33:20;1.88;;;0.70;;
51718;SDS011;37795;53.236;5.704;2024-01-06T10:35:46;1.25;;;0.80;;
51718;SDS011;37795;53.236;5.704;2024-01-06T10:38:12;1.30;;;0.70;;
51718;SDS011;37795;53.236;5.704;2024-01-06T10:40:55;1.48;;;0.75;;
51718;SDS011;37795;53.236;5.704;2024-01-06T10:43:25;2.80;;;0.80;;
51718;SDS011;37795;53.236;5.704;2024-01-06T10:52:14;1.40;;;1.20;;
51718;SDS011;37795;53.236;5.704;2024-01-06T10:54:40;1.80;;;0.90;;
51718;SDS011;37795;53.236;5.704;2024-01-06T10:57:07;2.20;;;1.00;;
51718;SDS011;37795;53.236;5.704;2024-01-06T10:59:33;1.08;;;0.80;;
51718;SDS011;37795;53.236;5.704;2024-01-06T11:02:00;1.50;;;0.90;;
51718;SDS011;37795;53.236;5.704;2024-01-06T11:04:27;1.73;;;0.98;;
51718;SDS011;37795;53.236;5.704;2024-01-06T11:06:53;1.07;;;0.80;;
51718;SDS011;37795;53.236;5.704;2024-01-06T11:09:21;1.00;;;0.90;;
51718;SDS011;37795;53.236;5.704;2024-01-06T11:11:49;1.80;;;1.00;;
51718;SDS011;37795;53.236;5.704;2024-01-06T11:14:22;1.35;;;0.90;;
51718;SDS011;37795;53.236;5.704;2024-01-06T11:16:49;1.10;;;0.80;;
51718;SDS011;37795;53.236;5.704;2024-01-06T11:25:05;1.05;;;0.85;;
51718;SDS011;37795;53.236;5.704;2024-01-06T11:27:32;2.55;;;1.00;;
51718;SDS011;37795;53.236;5.704;2024-01-06T11:30:02;2.28;;;1.00;;
51718;SDS011;37795;53.236;5.704;2024-01-06T11:32:35;2.30;;;1.10;;
51718;SDS011;37795;53.236;5.704;2024-01-06T11:35:10;1.20;;;1.00;;
51718;SDS011;37795;53.236;5.704;2024-01-06T11:42:37;1.50;;;1.10;;
51718;SDS011;37795;53.236;5.704;2024-01-06T11:45:05;1.35;;;1.20;;
51718;SDS011;37795;53.236;5.704;2024-01-06T11:47:32;1.50;;;1.02;;
51718;SDS011;37795;53.236;5.704;2024-01-06T11:49:59;1.60;;;1.20;;
51718;SDS011;37795;53.236;5.704;2024-01-06T11:52:26;1.40;;;0.90;;
51718;SDS011;37795;53.236;5.704;2024-01-06T11:54:55;1.73;;;1.05;;
51718;SDS011;37795;53.236;5.704;2024-01-06T11:57:21;1.60;;;0.90;;
51718;SDS011;37795;53.236;5.704;2024-01-06T11:59:47;2.15;;;1.15;;
51718;SDS011;37795;53.236;5.704;2024-01-06T12:02:13;1.85;;;1.10;;
51718;SDS011;37795;53.236;5.704;2024-01-06T12:04:39;1.40;;;1.00;;
51718;SDS011;37795;53.236;5.704;2024-01-06T12:07:08;1.17;;;0.98;;
51718;SDS011;37795;53.236;5.704;2024-01-06T12:09:34;1.60;;;1.00;;
51718;SDS011;37795;53.236;5.704;2024-01-06T12:12:03;2.10;;;1.00;;
51718;SDS011;37795;53.236;5.704;2024-01-06T12:14:34;1.42;;;0.95;;
51718;SDS011;37795;53.236;5.704;2024-01-06T12:16:59;1.27;;;0.90;;
51718;SDS011;37795;53.236;5.704;2024-01-06T12:19:29;1.80;;;1.05;;
51718;SDS011;37795;53.236;5.704;2024-01-06T12:21:56;1.63;;;1.15;;
51718;SDS011;37795;53.236;5.704;2024-01-06T12:24:22;2.10;;;1.30;;
51718;SDS011;37795;53.236;5.704;2024-01-06T12:26:47;1.53;;;1.17;;
51718;SDS011;37795;53.236;5.704;2024-01-06T12:29:14;1.70;;;1.10;;
51718;SDS011;37795;53.236;5.704;2024-01-06T12:31:40;1.30;;;1.20;;
51718;SDS011;37795;53.236;5.704;2024-01-06T12:34:07;1.50;;;1.10;;
51718;SDS011;37795;53.236;5.704;2024-01-06T12:36:34;1.37;;;1.20;;
51718;SDS011;37795;53.236;5.704;2024-01-06T12:39:00;1.58;;;1.20;;
51718;SDS011;37795;53.236;5.704;2024-01-06T12:41:28;1.33;;;1.10;;
51718;SDS011;37795;53.236;5.704;2024-01-06T12:43:54;2.10;;;1.10;;
51718;SDS011;37795;53.236;5.704;2024-01-06T12:46:20;1.25;;;1.00;;
51718;SDS011;37795;53.236;5.704;2024-01-06T12:48:45;1.50;;;1.20;;
51718;SDS011;37795;53.236;5.704;2024-01-06T12:51:11;1.05;;;0.95;;
51718;SDS011;37795;53.236;5.704;2024-01-06T12:53:37;2.13;;;0.85;;
51718;SDS011;37795;53.236;5.704;2024-01-06T12:56:03;1.50;;;1.07;;
51718;SDS011;37795;53.236;5.704;2024-01-06T12:58:28;1.50;;;1.10;;
51718;SDS011;37795;53.236;5.704;2024-01-06T13:00:54;1.60;;;1.20;;
51718;SDS011;37795;53.236;5.704;2024-01-06T13:03:20;1.75;;;1.20;;
51718;SDS011;37795;53.236;5.704;2024-01-06T13:05:45;1.23;;;1.00;;
51718;SDS011;37795;53.236;5.704;2024-01-06T13:08:12;1.45;;;1.10;;
51718;SDS011;37795;53.236;5.704;2024-01-06T13:10:38;1.70;;;1.10;;
51718;SDS011;37795;53.236;5.704;2024-01-06T13:13:03;1.88;;;1.23;;
51718;SDS011;37795;53.236;5.704;2024-01-06T13:15:30;1.50;;;1.20;;
51718;SDS011;37795;53.236;5.704;2024-01-06T13:17:56;1.40;;;1.10;;
51718;SDS011;37795;53.236;5.704;2024-01-06T13:20:22;1.20;;;0.90;;
51718;SDS011;37795;53.236;5.704;2024-01-06T13:22:47;1.50;;;1.00;;
51718;SDS011;37795;53.236;5.704;2024-01-06T13:25:13;1.20;;;1.00;;
51718;SDS011;37795;53.236;5.704;2024-01-06T13:27:40;1.40;;;1.00;;
51718;SDS011;37795;53.236;5.704;2024-01-06T13:30:05;1.63;;;1.10;;
51718;SDS011;37795;53.236;5.704;2024-01-06T13:32:32;1.90;;;1.00;;
51718;SDS011;37795;53.236;5.704;2024-01-06T13:34:57;1.43;;;1.20;;
51718;SDS011;37795;53.236;5.704;2024-01-06T13:37:29;1.25;;;1.02;;
51718;SDS011;37795;53.236;5.704;2024-01-06T13:39:56;1.92;;;0.90;;
51718;SDS011;37795;53.236;5.704;2024-01-06T13:42:22;1.88;;;1.20;;
51718;SDS011;37795;53.236;5.704;2024-01-06T13:44:49;2.00;;;1.10;;
51718;SDS011;37795;53.236;5.704;2024-01-06T13:47:14;1.33;;;0.93;;
51718;SDS011;37795;53.236;5.704;2024-01-06T13:49:40;2.60;;;1.20;;
51718;SDS011;37795;53.236;5.704;2024-01-06T13:52:06;1.93;;;1.27;;
51718;SDS011;37795;53.236;5.704;2024-01-06T13:54:35;1.30;;;1.10;;
51718;SDS011;37795;53.236;5.704;2024-01-06T13:57:01;1.70;;;1.07;;
51718;SDS011;37795;53.236;5.704;2024-01-06T13:59:27;1.70;;;1.10;;
51718;SDS011;37795;53.236;5.704;2024-01-06T14:01:53;1.33;;;0.90;;
51718;SDS011;37795;53.236;5.704;2024-01-06T14:04:19;1.90;;;1.00;;
51718;SDS011;37795;53.236;5.704;2024-01-06T14:06:45;1.35;;;0.90;;
51718;SDS011;37795;53.236;5.704;2024-01-06T14:09:12;1.25;;;1.10;;
51718;SDS011;37795;53.236;5.704;2024-01-06T14:11:38;1.40;;;1.10;;
51718;SDS011;37795;53.236;5.704;2024-01-06T14:14:04;2.00;;;1.10;;
51718;SDS011;37795;53.236;5.704;2024-01-06T14:16:30;1.57;;;0.90;;
51718;SDS011;37795;53.236;5.704;2024-01-06T14:18:56;1.47;;;1.20;;
51718;SDS011;37795;53.236;5.704;2024-01-06T14:21:22;1.40;;;1.00;;
51718;SDS011;37795;53.236;5.704;2024-01-06T14:23:48;1.60;;;1.10;;
51718;SDS011;37795;53.236;5.704;2024-01-06T14:26:17;1.67;;;0.95;;
51718;SDS011;37795;53.236;5.704;2024-01-06T14:28:46;1.73;;;0.98;;
51718;SDS011;37795;53.236;5.704;2024-01-06T14:31:12;1.90;;;1.13;;
51718;SDS011;37795;53.236;5.704;2024-01-06T14:33:38;1.43;;;1.17;;
51718;SDS011;37795;53.236;5.704;2024-01-06T14:36:04;1.45;;;1.10;;
51718;SDS011;37795;53.236;5.704;2024-01-06T14:38:30;2.40;;;1.17;;
51718;SDS011;37795;53.236;5.704;2024-01-06T14:40:55;1.55;;;1.10;;
51718;SDS011;37795;53.236;5.704;2024-01-06T14:43:21;1.67;;;1.33;;
51718;SDS011;37795;53.236;5.704;2024-01-06T14:45:47;2.30;;;1.20;;
51718;SDS011;37795;53.236;5.704;2024-01-06T14:48:13;1.13;;;0.90;;
51718;SDS011;37795;53.236;5.704;2024-01-06T14:50:38;1.30;;;0.93;;
51718;SDS011;37795;53.236;5.704;2024-01-06T14:53:04;1.35;;;1.08;;
51718;SDS011;37795;53.236;5.704;2024-01-06T14:55:31;1.65;;;0.90;;
51718;SDS011;37795;53.236;5.704;2024-01-06T14:57:57;1.75;;;1.10;;
51718;SDS011;37795;53.236;5.704;2024-01-06T15:00:22;1.37;;;0.87;;
51718;SDS011;37795;53.236;5.704;2024-01-06T15:02:48;1.97;;;1.10;;
51718;SDS011;37795;53.236;5.704;2024-01-06T15:05:15;1.30;;;1.10;;
51718;SDS011;37795;53.236;5.704;2024-01-06T15:07:40;1.40;;;0.98;;
51718;SDS011;37795;53.236;5.704;2024-01-06T15:10:06;2.13;;;1.33;;
51718;SDS011;37795;53.236;5.704;2024-01-06T15:12:34;1.63;;;1.10;;
51718;SDS011;37795;53.236;5.704;2024-01-06T15:15:00;1.85;;;1.10;;